Time;durP1;ratioP1;P1;durP2;ratioP2;P2;SDS_P1;SDS_P2;PMS_P1;PMS_P2;Temp;Humidity;BMP_temperature;BMP_pressure;BME280_temperature;BME280_humidity;BME280_pressure;Samples;Min_cycle;Max_cycle;Signal;HPM_P1;HPM_P2
2023/03/12 00:03:33;;;;;;;0.25;0.25;;;;;;;1.02;100.00;101085.03;10524571;28;20048;-79
2023/03/12 00:08:35;;;;;;;1.10;0.82;;;;;;;1.06;100.00;101082.81;10524710;28;20479;-79
2023/03/12 00:13:37;;;;;;;0.95;0.28;;;;;;;1.14;100.00;101085.88;10524489;28;20048;-78
2023/03/12 00:18:40;;;;;;;1.20;1.13;;;;;;;1.14;100.00;101080.81;10538331;28;20040;-79
2023/03/12 00:23:42;;;;;;;0.22;0.22;;;;;;;1.18;100.00;101090.38;10564978;28;20097;-79
2023/03/12 00:28:45;;;;;;;0.00;0.00;;;;;;;1.20;100.00;101075.25;10554784;28;20097;-79
2023/03/12 00:33:50;;;;;;;0.10;0.10;;;;;;;1.06;100.00;101067.59;10523335;28;20458;-79
2023/03/12 00:38:53;;;;;;;0.30;0.30;;;;;;;1.15;100.00;101059.72;10523526;28;20047;-79
2023/03/12 00:43:55;;;;;;;1.55;0.90;;;;;;;1.24;100.00;101057.78;10523409;28;20044;-79
2023/03/12 00:48:56;;;;;;;0.00;0.00;;;;;;;1.18;100.00;101057.38;10519856;28;20514;-79
2023/03/12 00:53:58;;;;;;;0.00;0.00;;;;;;;1.22;100.00;101053.38;10582039;28;20050;-79
2023/03/12 00:59:00;;;;;;;0.10;0.10;;;;;;;1.17;100.00;101050.53;10525388;28;20040;-78
2023/03/12 01:04:02;;;;;;;1.48;0.90;;;;;;;1.06;100.00;101036.28;10522377;28;20097;-79
2023/03/12 01:09:06;;;;;;;0.00;0.00;;;;;;;1.03;100.00;101025.91;10523363;28;20051;-79
2023/03/12 01:14:08;;;;;;;0.25;0.25;;;;;;;1.05;100.00;101025.22;10505673;28;20454;-79
2023/03/12 01:19:09;;;;;;;0.10;0.10;;;;;;;0.95;100.00;101022.88;10537725;28;20043;-79
2023/03/12 01:24:13;;;;;;;0.13;0.13;;;;;;;0.98;100.00;101017.13;10564254;28;20119;-80
2023/03/12 01:29:14;;;;;;;0.00;0.00;;;;;;;1.03;100.00;101006.50;10539005;28;20501;-81
2023/03/12 01:34:16;;;;;;;0.15;0.13;;;;;;;1.04;100.00;101007.38;10506731;28;20044;-81
2023/03/12 01:39:18;;;;;;;0.00;0.00;;;;;;;1.08;100.00;101007.69;10529791;28;20071;-81
2023/03/12 01:44:19;;;;;;;0.00;0.00;;;;;;;1.11;100.00;101001.94;10513173;28;20414;-81
2023/03/12 01:49:28;;;;;;;0.38;0.38;;;;;;;1.03;100.00;101003.06;10516889;28;20052;-80
2023/03/12 01:54:35;;;;;;;0.00;0.00;;;;;;;1.05;100.00;100991.38;10566380;27;20052;-81
2023/03/12 01:59:44;;;;;;;0.10;0.10;;;;;;;1.13;100.00;100979.19;10512702;28;20151;-81
2023/03/12 02:04:46;;;;;;;0.00;0.00;;;;;;;1.05;100.00;100971.06;10538596;28;20048;-80
2023/03/12 02:09:49;;;;;;;0.00;0.00;;;;;;;0.90;100.00;100959.16;10544999;28;20470;-81
2023/03/12 02:14:51;;;;;;;0.10;0.10;;;;;;;0.93;100.00;100949.19;10568867;27;20097;-81
2023/03/12 02:20:09;;;;;;;0.13;0.13;;;;;;;0.92;100.00;100952.53;10539007;28;20039;-81
2023/03/12 02:25:17;;;;;;;0.05;0.05;;;;;;;0.83;100.00;100949.38;10542343;28;20491;-81
2023/03/12 02:30:20;;;;;;;0.10;0.10;;;;;;;0.78;100.00;100945.66;10521779;28;20067;-80
2023/03/12 02:35:22;;;;;;;0.00;0.00;;;;;;;0.80;100.00;100939.00;10534429;28;20052;-80
2023/03/12 02:40:37;;;;;;;0.40;0.40;;;;;;;0.88;100.00;100925.19;10521547;28;20043;-80
2023/03/12 02:45:39;;;;;;;0.22;0.20;;;;;;;0.88;100.00;100904.88;10539258;28;20127;-81
2023/03/12 02:50:41;;;;;;;0.05;0.03;;;;;;;0.98;100.00;100905.50;10536068;28;20107;-81
2023/03/12 02:55:43;;;;;;;0.47;0.47;;;;;;;0.99;100.00;100886.97;10495980;28;20072;-81
2023/03/12 03:00:45;;;;;;;0.00;0.00;;;;;;;1.05;100.00;100867.06;10527765;28;20071;-81
2023/03/12 03:05:47;;;;;;;0.90;0.90;;;;;;;1.00;100.00;100863.34;10520223;28;20470;-81
2023/03/12 03:10:51;;;;;;;0.00;0.00;;;;;;;1.07;100.00;100870.56;10523972;28;20097;-80
2023/03/12 03:15:56;;;;;;;0.30;0.30;;;;;;;1.04;100.00;100860.22;10537221;28;20040;-81
2023/03/12 03:21:02;;;;;;;0.57;0.57;;;;;;;0.98;100.00;100839.53;10526660;28;20050;-81
2023/03/12 03:26:06;;;;;;;0.35;0.35;;;;;;;0.95;100.00;100840.22;10532090;28;20092;-80
2023/03/12 03:31:08;;;;;;;0.13;0.10;;;;;;;1.23;100.00;100822.50;10535600;28;20090;-80
2023/03/12 03:36:15;;;;;;;0.13;0.13;;;;;;;1.12;100.00;100820.13;10539952;28;20482;-81
2023/03/12 03:41:26;;;;;;;0.98;0.30;;;;;;;1.11;100.00;100821.75;10535560;28;20403;-80
2023/03/12 03:46:28;;;;;;;0.20;0.20;;;;;;;1.21;100.00;100813.94;10500060;28;20040;-80
2023/03/12 03:51:35;;;;;;;0.20;0.20;;;;;;;1.24;100.00;100824.28;10511914;28;20472;-80
2023/03/12 03:56:41;;;;;;;0.15;0.15;;;;;;;1.23;100.00;100822.50;10552843;27;20032;-80
2023/03/12 04:01:43;;;;;;;0.60;0.60;;;;;;;1.25;100.00;100820.97;10521973;28;20134;-78
2023/03/12 04:06:48;;;;;;;0.22;0.22;;;;;;;1.37;100.00;100825.06;10508643;28;20091;-79
2023/03/12 04:11:50;;;;;;;0.55;0.30;;;;;;;1.43;100.00;100825.44;10524318;28;20048;-79
2023/03/12 04:16:53;;;;;;;0.38;0.35;;;;;;;1.48;100.00;100829.13;10524467;28;20048;-79
2023/03/12 04:21:54;;;;;;;0.77;0.77;;;;;;;1.43;100.00;100833.03;10524345;28;20435;-78
2023/03/12 04:26:57;;;;;;;0.10;0.10;;;;;;;1.46;100.00;100812.91;10541048;28;20044;-80
2023/03/12 04:31:59;;;;;;;0.00;0.00;;;;;;;1.28;100.00;100794.88;10542164;28;20560;-79
2023/03/12 04:37:02;;;;;;;0.20;0.20;;;;;;;1.24;100.00;100783.66;10522946;28;20490;-80
2023/03/12 04:42:05;;;;;;;0.00;0.00;;;;;;;1.15;100.00;100785.66;10525045;28;20040;-80
2023/03/12 04:47:07;;;;;;;0.05;0.05;;;;;;;0.94;100.00;100783.50;10513885;28;20129;-81
2023/03/12 04:52:09;;;;;;;1.38;0.82;;;;;;;0.97;100.00;100761.66;10522797;28;20139;-81
2023/03/12 04:57:11;;;;;;;0.20;0.20;;;;;;;1.01;100.00;100754.34;10517599;28;20134;-80
2023/03/12 05:02:13;;;;;;;0.00;0.00;;;;;;;1.05;100.00;100753.75;10542998;28;20093;-81
2023/03/12 05:07:15;;;;;;;0.17;0.17;;;;;;;0.90;100.00;100743.53;10537750;28;20054;-80
2023/03/12 05:12:17;;;;;;;0.03;0.03;;;;;;;0.97;100.00;100733.75;10515134;28;20486;-80
2023/03/12 05:17:19;;;;;;;0.30;0.28;;;;;;;0.87;100.00;100725.56;10544238;28;20040;-80
2023/03/12 05:22:20;;;;;;;0.10;0.10;;;;;;;0.76;100.00;100714.75;10572466;27;20051;-81
2023/03/12 05:27:24;;;;;;;0.08;0.08;;;;;;;0.98;100.00;100712.69;10543713;28;20044;-81
2023/03/12 05:32:28;;;;;;;2.58;0.50;;;;;;;1.11;100.00;100694.88;10542636;28;20044;-80
2023/03/12 05:37:30;;;;;;;0.30;0.30;;;;;;;1.25;100.00;100668.69;10571114;27;20044;-80
2023/03/12 05:42:33;;;;;;;0.95;0.95;;;;;;;1.16;100.00;100652.91;10538553;28;20043;-80
2023/03/12 05:47:35;;;;;;;0.20;0.20;;;;;;;1.26;100.00;100629.81;10571282;28;20044;-80
2023/03/12 05:52:37;;;;;;;4.82;1.17;;;;;;;1.30;100.00;100609.72;10545375;28;20044;-80
2023/03/12 05:57:38;;;;;;;0.20;0.20;;;;;;;1.34;100.00;100588.78;10532247;28;20480;-81
2023/03/12 06:02:40;;;;;;;0.03;0.03;;;;;;;1.34;100.00;100558.34;10536439;28;20052;-81
2023/03/12 06:07:44;;;;;;;3.17;0.52;;;;;;;1.35;100.00;100544.84;10524820;28;20040;-81
2023/03/12 06:12:46;;;;;;;0.00;0.00;;;;;;;1.45;100.00;100529.38;10536750;28;20486;-81
2023/03/12 06:17:48;;;;;;;0.00;0.00;;;;;;;1.44;100.00;100502.22;10512020;28;20035;-81
2023/03/12 06:22:50;;;;;;;0.35;0.35;;;;;;;1.51;100.00;100484.00;10526597;28;20507;-81
2023/03/12 06:27:52;;;;;;;0.10;0.10;;;;;;;1.52;100.00;100475.63;10524565;28;20036;-81
2023/03/12 06:32:53;;;;;;;0.00;0.00;;;;;;;1.55;100.00;100459.66;10543721;28;20073;-81
2023/03/12 06:37:55;;;;;;;0.10;0.10;;;;;;;1.54;100.00;100453.69;10526206;28;20044;-81
2023/03/12 06:42:57;;;;;;;0.10;0.10;;;;;;;1.67;100.00;100444.22;10552958;28;20097;-81
2023/03/12 06:47:58;;;;;;;0.28;0.25;;;;;;;1.64;100.00;100454.22;10559560;27;20044;-81
2023/03/12 06:53:00;;;;;;;0.00;0.00;;;;;;;1.76;100.00;100443.84;10548650;28;20044;-81
2023/03/12 06:58:02;;;;;;;0.30;0.30;;;;;;;1.67;100.00;100444.22;10540606;28;20071;-81
2023/03/12 07:03:04;;;;;;;0.15;0.15;;;;;;;1.76;100.00;100449.78;10572998;27;20043;-82
2023/03/12 07:08:06;;;;;;;0.20;0.20;;;;;;;1.72;100.00;100443.66;10527158;28;20059;-81
2023/03/12 07:13:08;;;;;;;0.82;0.82;;;;;;;1.80;100.00;100451.72;10503559;28;20089;-82
2023/03/12 07:18:11;;;;;;;0.17;0.15;;;;;;;1.88;100.00;100431.78;10531375;28;20048;-81
2023/03/12 07:23:12;;;;;;;0.20;0.20;;;;;;;1.82;100.00;100424.75;10518043;28;20109;-81
2023/03/12 07:28:14;;;;;;;0.00;0.00;;;;;;;1.92;100.00;100412.50;10515742;28;20100;-81
2023/03/12 07:33:18;;;;;;;0.03;0.03;;;;;;;1.69;100.00;100417.22;10523760;28;20044;-81
2023/03/12 07:38:20;;;;;;;0.00;0.00;;;;;;;1.89;100.00;100391.25;10524647;28;20075;-81
2023/03/12 07:43:25;;;;;;;0.35;0.35;;;;;;;1.85;100.00;100366.47;10523179;28;20083;-80
2023/03/12 07:48:28;;;;;;;0.10;0.10;;;;;;;1.98;100.00;100350.19;10557412;27;20047;-81
2023/03/12 07:53:30;;;;;;;0.20;0.15;;;;;;;2.07;100.00;100334.53;10549679;28;20090;-81
2023/03/12 07:58:35;;;;;;;0.00;0.00;;;;;;;2.24;100.00;100311.66;10533590;28;20051;-81
2023/03/12 08:03:37;;;;;;;0.40;0.30;;;;;;;2.25;100.00;100300.69;10522121;28;20055;-81
2023/03/12 08:08:41;;;;;;;0.28;0.28;;;;;;;2.39;100.00;100281.91;10532759;28;20055;-81
2023/03/12 08:13:43;;;;;;;0.00;0.00;;;;;;;2.33;100.00;100266.34;10538176;28;20047;-81
2023/03/12 08:18:44;;;;;;;0.30;0.30;;;;;;;2.38;100.00;100270.00;10545709;28;20055;-81
2023/03/12 08:23:46;;;;;;;1.23;0.40;;;;;;;2.49;100.00;100253.59;10533193;28;20093;-81
2023/03/12 08:28:48;;;;;;;0.20;0.20;;;;;;;2.46;100.00;100250.91;10531576;28;20376;-81
2023/03/12 08:33:49;;;;;;;0.00;0.00;;;;;;;2.57;100.00;100245.47;10503067;28;20460;-81
2023/03/12 08:38:51;;;;;;;0.00;0.00;;;;;;;2.70;100.00;100247.78;10532244;28;20039;-81
2023/03/12 08:43:52;;;;;;;0.00;0.00;;;;;;;2.71;100.00;100244.44;10525857;28;20075;-80
2023/03/12 08:48:54;;;;;;;0.08;0.08;;;;;;;2.69;100.00;100241.81;10559668;28;20051;-81
2023/03/12 08:53:56;;;;;;;0.30;0.30;;;;;;;2.65;100.00;100214.50;10518850;28;20044;-81
2023/03/12 08:58:58;;;;;;;0.10;0.10;;;;;;;2.74;100.00;100183.50;10510813;28;20085;-81
2023/03/12 09:04:01;;;;;;;1.65;0.75;;;;;;;2.58;100.00;100165.81;10547543;28;20036;-81
2023/03/12 09:09:04;;;;;;;0.00;0.00;;;;;;;2.71;100.00;100132.53;10517799;28;20619;-82
2023/03/12 09:14:05;;;;;;;0.20;0.20;;;;;;;2.70;100.00;100120.59;10546488;28;20071;-81
2023/03/12 09:19:27;;;;;;;1.05;0.60;;;;;;;2.73;100.00;100087.66;10531884;28;20131;-81
2023/03/12 09:24:29;;;;;;;0.13;0.13;;;;;;;2.90;100.00;100032.44;10536306;28;20048;-82
2023/03/12 09:29:31;;;;;;;0.00;0.00;;;;;;;2.83;100.00;100016.03;10503741;28;20047;-82
2023/03/12 09:34:33;;;;;;;0.35;0.28;;;;;;;3.25;100.00;99983.78;10492454;28;20059;-83
2023/03/12 09:39:35;;;;;;;0.22;0.08;;;;;;;3.25;100.00;99974.50;10534980;28;20055;-83
2023/03/12 09:44:44;;;;;;;0.15;0.15;;;;;;;3.31;100.00;99966.25;10523527;28;20044;-82
2023/03/12 09:49:50;;;;;;;0.30;0.30;;;;;;;3.30;100.00;99939.06;10543223;28;20093;-82
2023/03/12 09:55:13;;;;;;;0.50;0.30;;;;;;;3.40;100.00;99918.22;10538701;28;20065;-82
2023/03/12 10:00:20;;;;;;;0.32;0.20;;;;;;;3.63;100.00;99896.19;10515455;28;20047;-82
2023/03/12 10:05:39;;;;;;;0.00;0.00;;;;;;;3.67;100.00;99886.09;10530107;28;20051;-83
2023/03/12 10:10:59;;;;;;;0.20;0.10;;;;;;;3.73;100.00;99871.94;10516413;28;20040;-82
2023/03/12 10:16:28;;;;;;;0.00;0.00;;;;;;;3.94;100.00;99825.09;10532487;28;20545;-82
2023/03/12 10:21:48;;;;;;;0.00;0.00;;;;;;;4.17;100.00;99843.72;10533635;28;20079;-82
2023/03/12 10:26:53;;;;;;;0.00;0.00;;;;;;;4.41;100.00;99818.22;10564960;28;20048;-82
2023/03/12 10:32:04;;;;;;;0.30;0.30;;;;;;;4.59;100.00;99817.06;10533724;28;20087;-83
2023/03/12 10:37:28;;;;;;;14.82;0.63;;;;;;;4.96;100.00;99797.81;10530938;28;20056;-83
2023/03/12 10:42:30;;;;;;;0.08;0.08;;;;;;;5.23;100.00;99791.84;10541666;28;20048;-83
2023/03/12 10:47:39;;;;;;;1.40;0.70;;;;;;;5.67;100.00;99784.56;10533879;28;20494;-83
2023/03/12 10:52:42;;;;;;;0.00;0.00;;;;;;;5.76;100.00;99783.94;10531369;28;20510;-80
2023/03/12 10:57:43;;;;;;;0.17;0.17;;;;;;;6.00;100.00;99765.88;10588772;28;20051;-80
2023/03/12 11:02:46;;;;;;;0.50;0.50;;;;;;;6.19;100.00;99761.25;10589090;28;20525;-80
2023/03/12 11:07:49;;;;;;;1.40;1.00;;;;;;;6.46;100.00;99747.38;10547338;28;20066;-81
2023/03/12 11:13:02;;;;;;;0.08;0.08;;;;;;;6.64;100.00;99742.72;10546663;28;20040;-80
2023/03/12 11:18:20;;;;;;;1.20;1.08;;;;;;;6.43;100.00;99755.84;10520415;28;20040;-79
2023/03/12 11:23:27;;;;;;;0.93;0.63;;;;;;;6.64;100.00;99773.44;10526253;28;20490;-80
2023/03/12 11:29:01;;;;;;;0.22;0.22;;;;;;;6.58;100.00;99773.28;10540789;28;20032;-80
2023/03/12 11:34:06;;;;;;;0.73;0.70;;;;;;;7.07;100.00;99757.31;10504360;28;20463;-79
2023/03/12 11:39:42;;;;;;;1.45;0.52;;;;;;;7.25;100.00;99738.88;10543175;28;20093;-79
2023/03/12 11:44:53;;;;;;;1.30;0.95;;;;;;;7.34;100.00;99756.13;10549854;28;20039;-80
2023/03/12 11:50:19;;;;;;;1.02;0.93;;;;;;;7.50;100.00;99763.31;10558598;28;20048;-80
2023/03/12 11:55:51;;;;;;;0.68;0.40;;;;;;;7.77;100.00;99763.00;10585621;28;20114;-80
2023/03/12 12:01:42;;;;;;;1.35;1.05;;;;;;;7.71;100.00;99777.38;10546100;28;20040;-80
2023/03/12 12:07:02;;;;;;;1.15;0.82;;;;;;;7.80;100.00;99777.56;10508979;28;20048;-80
2023/03/12 12:12:20;;;;;;;0.20;0.15;;;;;;;7.93;100.00;99765.84;10566767;27;20085;-80
2023/03/12 12:17:28;;;;;;;0.75;0.40;;;;;;;8.17;100.00;99754.28;10531967;28;20089;-80
2023/03/12 12:23:17;;;;;;;1.10;0.77;;;;;;;8.37;100.00;99752.91;10539385;28;20060;-80
2023/03/12 12:28:52;;;;;;;0.47;0.25;;;;;;;8.40;100.00;99749.53;10545708;28;20049;-80
2023/03/12 12:34:04;;;;;;;0.47;0.47;;;;;;;8.39;100.00;99740.09;10530795;28;20092;-81
2023/03/12 12:39:14;;;;;;;4.53;0.85;;;;;;;8.43;100.00;99716.22;10556888;28;20048;-80
2023/03/12 12:44:24;;;;;;;0.77;0.52;;;;;;;8.65;100.00;99696.88;10520045;28;20100;-79
2023/03/12 12:49:42;;;;;;;1.38;0.75;;;;;;;8.83;100.00;99672.31;10529842;28;20040;-79
2023/03/12 12:55:05;;;;;;;0.60;0.52;;;;;;;8.76;100.00;99679.06;10510558;28;20086;-79
2023/03/12 13:00:44;;;;;;;0.52;0.50;;;;;;;9.05;100.00;99660.59;10513209;28;20048;-79
2023/03/12 13:05:54;;;;;;;2.55;0.75;;;;;;;8.99;100.00;99657.94;10534687;28;20457;-79
2023/03/12 13:10:55;;;;;;;0.45;0.45;;;;;;;8.97;100.00;99644.25;10516434;28;20123;-79
2023/03/12 13:16:19;;;;;;;0.25;0.25;;;;;;;9.03;100.00;99644.31;10541363;28;20051;-79
2023/03/12 13:21:30;;;;;;;0.10;0.10;;;;;;;8.94;100.00;99659.59;10533918;28;20039;-79
2023/03/12 13:26:56;;;;;;;4.18;0.30;;;;;;;9.00;100.00;99657.13;10533136;28;20036;-79
2023/03/12 13:31:58;;;;;;;0.85;0.50;;;;;;;9.29;100.00;99636.03;10525727;28;20059;-79
2023/03/12 13:37:01;;;;;;;0.00;0.00;;;;;;;9.42;100.00;99645.59;10540827;28;20087;-80
2023/03/12 13:42:21;;;;;;;4.50;0.75;;;;;;;9.28;100.00;99660.00;10551013;28;20040;-78
2023/03/12 13:47:31;;;;;;;1.40;1.30;;;;;;;9.29;100.00;99664.28;10524776;28;20139;-79
2023/03/12 13:52:40;;;;;;;2.70;0.33;;;;;;;9.67;100.00;99679.25;10510092;28;20487;-79
2023/03/12 13:57:47;;;;;;;11.10;0.80;;;;;;;9.61;100.00;99699.78;10531985;28;20302;-79
2023/03/12 14:02:53;;;;;;;0.80;0.10;;;;;;;10.03;100.00;99703.59;10532521;28;20388;-80
2023/03/12 14:08:09;;;;;;;0.95;0.60;;;;;;;9.97;100.00;99739.56;10519966;28;20050;-79
2023/03/12 14:13:26;;;;;;;2.88;0.50;;;;;;;10.18;100.00;99779.22;10536508;28;20168;-81
2023/03/12 14:18:32;;;;;;;1.10;0.20;;;;;;;10.06;100.00;99806.56;10540849;28;20044;-80
2023/03/12 14:23:38;;;;;;;0.47;0.47;;;;;;;10.28;100.00;99835.09;10552112;28;20066;-81
2023/03/12 14:28:40;;;;;;;4.95;1.00;;;;;;;10.48;100.00;99851.63;10508439;28;20218;-79
2023/03/12 14:34:04;;;;;;;2.20;0.65;;;;;;;10.75;100.00;99900.81;10522693;28;20487;-79
2023/03/12 14:39:21;;;;;;;1.20;0.65;;;;;;;10.92;100.00;99970.53;10534825;28;20043;-79
2023/03/12 14:44:25;;;;;;;4.65;1.52;;;;;;;10.85;100.00;100010.84;10545722;28;20386;-80
2023/03/12 14:49:29;;;;;;;1.55;0.77;;;;;;;11.08;100.00;100021.38;10537038;28;20498;-81
2023/03/12 14:54:31;;;;;;;0.60;0.52;;;;;;;10.96;100.00;100070.25;10542902;28;20552;-80
2023/03/12 14:59:36;;;;;;;6.93;0.75;;;;;;;10.95;100.00;100071.09;10542597;28;20078;-80
2023/03/12 15:04:40;;;;;;;7.13;0.47;;;;;;;10.73;100.00;100127.53;10531282;28;20050;-80
2023/03/12 15:09:45;;;;;;;1.25;0.38;;;;;;;10.65;100.00;100178.06;10521198;28;20128;-80
2023/03/12 15:14:50;;;;;;;0.40;0.30;;;;;;;10.61;100.00;100213.22;10566648;27;20055;-80
2023/03/12 15:19:53;;;;;;;5.03;0.40;;;;;;;10.56;100.00;100222.59;10539439;28;20044;-80
2023/03/12 15:25:00;;;;;;;0.10;0.10;;;;;;;10.55;100.00;100258.63;10533832;28;20047;-80
2023/03/12 15:30:25;;;;;;;3.83;1.77;;;;;;;10.66;100.00;100277.69;10533850;28;20475;-80
2023/03/12 15:35:27;;;;;;;0.40;0.40;;;;;;;10.61;100.00;100281.94;10529386;28;20055;-80
2023/03/12 15:40:30;;;;;;;0.10;0.10;;;;;;;10.62;100.00;100275.91;10525512;28;20046;-79
2023/03/12 15:45:37;;;;;;;3.05;0.90;;;;;;;10.66;100.00;100293.16;10534462;28;20056;-79
2023/03/12 15:50:44;;;;;;;0.00;0.00;;;;;;;10.43;100.00;100321.09;10525915;28;20059;-79
2023/03/12 15:56:05;;;;;;;2.05;0.38;;;;;;;10.35;100.00;100362.16;10537798;28;20056;-82
2023/03/12 16:01:11;;;;;;;0.00;0.00;;;;;;;10.31;100.00;100361.22;10539693;28;20515;-81
2023/03/12 16:06:15;;;;;;;0.13;0.13;;;;;;;10.25;100.00;100353.41;10535563;28;20036;-80
2023/03/12 16:11:26;;;;;;;0.00;0.00;;;;;;;10.36;100.00;100352.69;10526730;28;20121;-82
2023/03/12 16:16:29;;;;;;;0.85;0.25;;;;;;;10.22;100.00;100344.75;10530629;28;20384;-81
2023/03/12 16:21:33;;;;;;;4.40;0.10;;;;;;;10.13;100.00;100338.59;10534430;28;20052;-82
2023/03/12 16:26:41;;;;;;;4.18;0.75;;;;;;;10.13;100.00;100318.00;10521332;28;20495;-81
2023/03/12 16:31:54;;;;;;;2.10;1.10;;;;;;;10.11;100.00;100303.38;10518213;28;20044;-81
2023/03/12 16:36:59;;;;;;;0.10;0.10;;;;;;;9.99;100.00;100297.13;10550937;28;20091;-82
2023/03/12 16:42:01;;;;;;;0.65;0.57;;;;;;;10.00;100.00;100280.00;10505856;28;20047;-81
2023/03/12 16:47:04;;;;;;;17.73;1.15;;;;;;;10.05;100.00;100278.38;10510737;28;20487;-81
2023/03/12 16:52:20;;;;;;;8.68;0.45;;;;;;;10.03;100.00;100276.63;10538651;28;20031;-81
2023/03/12 16:57:29;;;;;;;0.10;0.10;;;;;;;9.98;100.00;100268.81;10542545;28;20130;-81
2023/03/12 17:02:31;;;;;;;0.00;0.00;;;;;;;9.96;100.00;100275.63;10536125;28;20043;-80
2023/03/12 17:07:32;;;;;;;1.00;0.80;;;;;;;9.98;100.00;100266.25;10533825;28;20048;-81
2023/03/12 17:12:37;;;;;;;0.25;0.20;;;;;;;9.81;100.00;100255.66;10499435;28;20044;-80
2023/03/12 17:17:40;;;;;;;5.95;0.35;;;;;;;9.86;100.00;100260.88;10529934;28;20044;-82
2023/03/12 17:22:42;;;;;;;3.40;0.68;;;;;;;9.84;100.00;100261.72;10489221;28;20056;-81
2023/03/12 17:27:44;;;;;;;1.17;1.02;;;;;;;9.81;100.00;100259.06;10535453;28;20047;-80
2023/03/12 17:32:46;;;;;;;0.00;0.00;;;;;;;9.74;100.00;100246.06;10527584;28;20035;-80
2023/03/12 17:37:48;;;;;;;0.10;0.10;;;;;;;9.69;100.00;100261.41;10516705;28;20471;-80
2023/03/12 17:42:50;;;;;;;1.48;0.35;;;;;;;9.75;100.00;100264.09;10518079;28;20051;-79
2023/03/12 17:47:51;;;;;;;0.68;0.52;;;;;;;9.82;100.00;100260.81;10529875;28;20376;-81
2023/03/12 17:52:53;;;;;;;0.82;0.60;;;;;;;9.65;100.00;100267.31;10540448;28;20479;-80
2023/03/12 17:57:54;;;;;;;1.65;0.52;;;;;;;9.71;100.00;100246.88;10516530;28;20047;-79
2023/03/12 18:02:56;;;;;;;1.45;0.55;;;;;;;9.61;100.00;100256.13;10540144;28;20068;-80
2023/03/12 18:07:57;;;;;;;0.35;0.32;;;;;;;9.56;100.00;100256.88;10500935;28;20135;-81
2023/03/12 18:12:59;;;;;;;6.72;0.98;;;;;;;9.74;100.00;100252.06;10518052;28;20040;-81
2023/03/12 18:18:01;;;;;;;0.43;0.43;;;;;;;9.63;100.00;100248.44;10504347;28;20075;-81
2023/03/12 18:23:05;;;;;;;0.25;0.13;;;;;;;9.72;100.00;100247.75;10533529;28;20036;-80
2023/03/12 18:28:10;;;;;;;0.70;0.32;;;;;;;9.67;100.00;100250.22;10520585;28;20044;-80
2023/03/12 18:33:13;;;;;;;0.20;0.20;;;;;;;9.75;100.00;100238.38;10514697;28;20488;-81
2023/03/12 18:38:14;;;;;;;1.83;0.50;;;;;;;9.78;100.00;100241.03;10532182;28;20074;-79
2023/03/12 18:43:16;;;;;;;0.25;0.20;;;;;;;9.83;100.00;100231.66;10564933;27;20120;-81
2023/03/12 18:48:18;;;;;;;0.20;0.15;;;;;;;9.60;100.00;100217.50;10538235;28;20056;-82
2023/03/12 18:53:19;;;;;;;4.90;0.70;;;;;;;9.52;100.00;100204.53;10512015;28;20056;-81
2023/03/12 18:58:23;;;;;;;1.85;0.75;;;;;;;9.56;100.00;100200.31;10510530;28;20054;-81
2023/03/12 19:03:25;;;;;;;3.00;0.13;;;;;;;9.65;100.00;100208.16;10557562;28;20044;-80
2023/03/12 19:08:28;;;;;;;0.00;0.00;;;;;;;9.68;100.00;100205.66;10552137;28;20044;-80
2023/03/12 19:13:29;;;;;;;0.35;0.35;;;;;;;9.77;100.00;100216.13;10525931;28;20101;-80
2023/03/12 19:18:33;;;;;;;0.13;0.13;;;;;;;9.84;100.00;100237.66;10526140;28;20109;-79
2023/03/12 19:23:35;;;;;;;0.10;0.00;;;;;;;9.82;100.00;100239.38;10521192;28;20116;-80
2023/03/12 19:28:37;;;;;;;2.17;0.32;;;;;;;9.81;100.00;100238.50;10545103;28;20070;-79
2023/03/12 19:33:40;;;;;;;0.85;0.77;;;;;;;9.91;100.00;100248.97;10514738;28;20121;-80
2023/03/12 19:38:42;;;;;;;1.67;0.38;;;;;;;9.84;100.00;100243.69;10518774;28;20043;-80
2023/03/12 19:43:44;;;;;;;0.50;0.50;;;;;;;9.79;100.00;100235.00;10515739;28;20048;-82
2023/03/12 19:48:46;;;;;;;0.28;0.08;;;;;;;10.06;100.00;100223.50;10510957;28;20098;-82
2023/03/12 19:53:47;;;;;;;0.10;0.10;;;;;;;9.95;100.00;100232.72;10522292;28;20062;-80
2023/03/12 19:58:49;;;;;;;1.45;0.28;;;;;;;9.68;100.00;100227.09;10541083;28;20393;-81
2023/03/12 20:03:51;;;;;;;3.45;0.68;;;;;;;9.76;100.00;100219.53;10518191;28;20044;-81
2023/03/12 20:08:52;;;;;;;0.15;0.15;;;;;;;10.08;100.00;100223.50;10523708;28;20089;-79
2023/03/12 20:13:54;;;;;;;2.85;0.90;;;;;;;9.87;100.00;100240.31;10510585;28;20490;-79
2023/03/12 20:18:56;;;;;;;0.00;0.00;;;;;;;9.93;100.00;100221.56;10523226;28;20399;-80
2023/03/12 20:23:58;;;;;;;1.88;1.67;;;;;;;10.04;100.00;100214.88;10531190;28;20062;-79
2023/03/12 20:29:01;;;;;;;0.90;0.43;;;;;;;10.12;100.00;100217.59;10541320;28;20067;-79
2023/03/12 20:34:03;;;;;;;3.33;1.67;;;;;;;9.93;100.00;100206.13;10520135;28;20085;-79
2023/03/12 20:39:04;;;;;;;0.30;0.20;;;;;;;10.09;100.00;100212.38;10536259;28;20093;-79
2023/03/12 20:44:06;;;;;;;2.17;1.45;;;;;;;10.07;100.00;100199.50;10536978;28;20114;-80
2023/03/12 20:49:07;;;;;;;0.00;0.00;;;;;;;10.04;100.00;100183.13;10526381;28;20032;-81
2023/03/12 20:54:09;;;;;;;0.00;0.00;;;;;;;10.01;100.00;100186.53;10518069;28;20059;-81
2023/03/12 20:59:11;;;;;;;0.00;0.00;;;;;;;10.06;100.00;100192.59;10525766;28;20051;-81
2023/03/12 21:04:13;;;;;;;0.63;0.45;;;;;;;10.00;100.00;100177.94;10509736;28;20054;-80
2023/03/12 21:09:15;;;;;;;0.75;0.75;;;;;;;9.85;100.00;100159.66;10508099;28;20052;-81
2023/03/12 21:14:16;;;;;;;0.13;0.13;;;;;;;9.96;100.00;100142.69;10496085;28;20094;-81
2023/03/12 21:19:18;;;;;;;0.00;0.00;;;;;;;9.80;100.00;100123.56;10525463;28;20538;-81
2023/03/12 21:24:19;;;;;;;1.90;0.73;;;;;;;9.87;100.00;100113.34;10536631;28;20056;-81
2023/03/12 21:29:21;;;;;;;0.00;0.00;;;;;;;9.68;100.00;100097.63;10532363;28;20092;-80
2023/03/12 21:34:23;;;;;;;1.67;0.93;;;;;;;9.62;100.00;100084.69;10502794;28;20044;-79
2023/03/12 21:39:25;;;;;;;3.08;0.60;;;;;;;9.65;100.00;100082.16;10555008;28;20040;-79
2023/03/12 21:44:27;;;;;;;7.72;1.52;;;;;;;9.50;100.00;100068.19;10518351;28;20039;-79
2023/03/12 21:49:31;;;;;;;22.02;1.85;;;;;;;9.59;100.00;100051.19;10534389;28;20047;-78
2023/03/12 21:54:34;;;;;;;0.52;0.20;;;;;;;9.42;100.00;100049.19;10523282;28;20040;-79
2023/03/12 21:59:35;;;;;;;0.77;0.30;;;;;;;9.28;100.00;100030.09;10526642;28;20048;-79
2023/03/12 22:04:37;;;;;;;5.70;0.73;;;;;;;9.38;100.00;100015.72;10519864;28;20043;-79
2023/03/12 22:09:39;;;;;;;0.08;0.05;;;;;;;9.48;100.00;100007.31;10522360;28;20051;-78
2023/03/12 22:14:40;;;;;;;0.10;0.10;;;;;;;9.49;100.00;100006.47;10517583;28;20052;-78
2023/03/12 22:19:45;;;;;;;0.80;0.22;;;;;;;9.47;100.00;99998.75;10543964;28;20040;-79
2023/03/12 22:24:46;;;;;;;8.93;1.08;;;;;;;9.39;100.00;99992.59;10531606;28;20048;-79
2023/03/12 22:29:51;;;;;;;3.25;1.33;;;;;;;9.43;100.00;99991.81;10512851;28;20048;-78
2023/03/12 22:34:53;;;;;;;2.97;1.42;;;;;;;9.42;100.00;99974.63;10522376;28;20044;-78
2023/03/12 22:40:00;;;;;;;5.57;0.77;;;;;;;9.42;100.00;99961.78;10531525;28;20044;-78
2023/03/12 22:45:02;;;;;;;1.00;0.30;;;;;;;9.33;100.00;99962.53;10548489;28;20487;-78
2023/03/12 22:50:04;;;;;;;1.33;0.60;;;;;;;9.60;100.00;99955.19;10527988;28;20044;-79
2023/03/12 22:55:06;;;;;;;0.22;0.17;;;;;;;9.51;100.00;99964.50;10528415;28;20054;-78
2023/03/12 23:00:11;;;;;;;1.85;0.28;;;;;;;9.67;100.00;99954.44;10531194;28;20036;-78
2023/03/12 23:05:13;;;;;;;5.43;2.13;;;;;;;9.59;100.00;99953.47;10524299;28;20044;-78
2023/03/12 23:10:15;;;;;;;2.28;0.22;;;;;;;9.68;100.00;99933.03;10499858;28;20449;-78
2023/03/12 23:15:17;;;;;;;0.50;0.20;;;;;;;9.85;100.00;99940.97;10547697;28;20089;-78
2023/03/12 23:20:21;;;;;;;1.23;0.20;;;;;;;9.81;100.00;99934.94;10512585;28;20446;-78
2023/03/12 23:25:24;;;;;;;1.10;0.63;;;;;;;9.89;100.00;99947.03;10553777;28;20040;-79